Pagrindinis puslapis
METAR-TAF:

METAR-TAF

Oro uostai :

Mersa Matruhas, Egiptas

platuma: 31-20N, ilguma: 027-13E, Aukštis: 25 m

Dabartinis oras

Ataskaita buvo paskelbta 2 valandos ir 15 minutes, ne 17:00 UTC
Vėjas 6 kt iš Šiaurės Vakarų
Temperatūra 22°C
Drėgmė 57%
Slėgis 1023 hPa
Matomumas 10 km arba daugiau
Išsisklaidę debesys ne aukštis 2000 ft

METAR: HEMM 221700Z 32006KT 9999 SCT020 22/13 Q1023 NOSIG

Laikas: 21:15 (19:15 UTC)

Prognozė

Ataskaita buvo paskelbta 2 valandos ir 15 minutes, ne 17:00 UTC
Prognozė galioja nuo 22 metu 18 UTC su 23 metu 24 UTC
Vėjas 8 kt iš Šiaurės
Matomumas 10 km arba daugiau
Išsisklaidę debesys ne aukštis 2000 ft

TAF: HEMM 221700Z 2218/2324 36008KT 9999 SCT020

Orai ataskaitas ir orų prognozės (METAR, TAF).

turimą stotys yra geltonos ir raudonos taškus žemėlapyje.

Perkelti pele per norėdami pamatyti stoties vardą.

Tada spustelėkite, norėdami matyti oro stebėjimo ir prognozės.

Norėdami pakeisti žemėlapį: spustelėkite ant žalios mygtukų su juodo kryžiaus žemyn,; žalią mygtuką su brūkšneliu, jei norite nutolinti; arba žalių rodyklių gretimoms žemėlapius.


METAR-TAF: